Station: Tasman Island  

  Atmospheric Gas Attenuation - ITU Rec 676-11   ----------------- dB/100km -----------------
Date Time Temp RH % AH g/m3 Dew Point Wind Direction Speed kph Gust kph Barometer mB Rainfall Since 9am 24GHz 47GHz 76GHz 122GHz 134GHz 241GHz
06/09 20:40 10.7 89 8.74 9 17 26 1015.3 0 20.0 27.1 42.1 110.5 104.5 359.6
06/09 20:30 10.7 89 8.74 9 17 24 1015.4 0 20.0 27.1 42.1 110.5 104.6 359.6
06/09 20:20 10.7 88 8.65 8.8 17 28 1015.4 0 19.8 27.0 41.7 109.5 103.3 355.2
06/09 20:10 10.6 87 8.49 8.5 17 24 1015.5 0 19.5 26.7 41.1 107.8 101.2 348.0
06/09 20:00 10.7 87 8.55 8.6 15 24 1015.7 0 19.6 26.8 41.3 108.4 102.0 350.5
06/09 19:50 10.7 86 8.45 8.5 15 26 1015.7 0 19.4 26.7 40.9 107.3 100.6 345.7
06/09 19:40 10.6 87 8.49 8.5 17 26 1015.8 0 19.5 26.8 41.1 107.9 101.3 348.1
06/09 19:30 10.6 87 8.49 8.5 17 30 1015.8 0 19.5 26.8 41.1 107.9 101.3 348.1
06/09 19:20 10.7 89 8.74 9 19 26 1015.9 0 20.0 27.2 42.1 110.5 104.6 359.7
06/09 19:10 10.6 90 8.79 9 19 28 1015.9 0 20.2 27.3 42.4 111.2 105.4 362.6
06/09 19:00 10.6 90 8.79 9 19 28 1015.9 0 20.2 27.3 42.4 111.2 105.4 362.6
06/09 18:50 10.6 89 8.69 8.9 19 28 1015.9 0 19.9 27.1 41.9 110.1 104.0 357.8
06/09 18:40 10.7 88 8.65 8.8 19 26 1015.9 0 19.8 27.0 41.7 109.5 103.3 355.4
06/09 18:30 10.6 88 8.59 8.7 19 28 1015.9 0 19.7 26.9 41.5 109.0 102.7 352.9
06/09 18:20 10.7 88 8.65 8.8 19 30 1015.8 0 19.8 27.0 41.7 109.5 103.3 355.3
06/09 18:10 10.7 87 8.55 8.6 19 26 1015.8 0 19.6 26.8 41.3 108.4 102.0 350.5
06/09 18:00 10.6 88 8.59 8.7 17 26 1015.8 0 19.7 26.9 41.5 109.0 102.6 352.9
06/09 17:50 10.8 90 8.9 9.2 15 24 1015.9 0 20.4 27.4 42.7 112.2 106.7 367.1
06/09 17:40 10.8 90 8.9 9.2 13 26 1015.8 0 20.4 27.4 42.7 112.2 106.7 367.0
06/09 17:30 10.9 89 8.85 9.2 13 22 1015.9 0 20.3 27.3 42.5 111.5 105.9 364.1
06/09 17:20 10.9 88 8.75 9 11 20 1015.8 0 20.1 27.1 42.0 110.3 104.5 359.3
06/09 17:10 10.9 89 8.85 9.2 13 22 1015.8 0 20.3 27.3 42.5 111.5 105.8 364.1
06/09 17:00 10.9 89 8.85 9.2 15 22 1015.7 0 20.3 27.3 42.4 111.5 105.8 364.1
06/09 16:50 10.9 88 8.75 9 15 22 1015.7 0 20.1 27.1 42.0 110.3 104.4 359.2
06/09 16:40 11.2 86 8.72 8.9 17 24 1015.6 0 20.0 27.0 41.7 109.6 103.6 356.4
06/09 16:30 11.1 85 8.56 8.7 15 22 1015.7 0 19.6 26.7 41.1 107.9 101.6 349.2
06/09 16:20 11.2 84 8.52 8.6 17 22 1015.7 0 19.5 26.6 40.9 107.3 100.9 346.8
06/09 16:10 11.4 87 8.93 9.3 15 20 1015.9 0 20.4 27.3 42.5 111.7 106.3 365.7
06/09 16:00 11.8 87 9.16 9.7 13 17 1015.8 0 20.9 27.5 43.3 113.7 108.9 374.9
06/09 15:50 11.9 86 9.11 9.6 13 17 1015.9 0 20.8 27.4 43.0 113.0 108.1 372.0
06/09 15:40 11.9 85 9 9.5 13 19 1016 0 20.5 27.2 42.6 111.7 106.6 366.7
06/09 15:30 13.1 81 9.24 9.9 11 17 1016 0 21.0 27.3 42.9 112.7 108.2 372.6
06/09 15:20 13 75 8.51 8.7 11 17 1016.1 0 19.4 26.1 40.0 104.8 98.5 338.5
06/09 15:10 13.3 79 9.13 9.7 9 17 1016.1 0 20.7 27.0 42.3 111.2 106.4 366.4
06/09 15:00 12.7 76 8.46 8.6 7 19 1016.1 0 19.3 26.1 39.9 104.7 98.2 337.5
06/09 14:50 13.4 77 8.95 9.5 7 11 1016 0 20.4 26.7 41.5 109.1 103.8 357.4
06/09 14:40 13.8 71 8.46 8.6 7 13 1015.9 0 19.3 25.8 39.4 103.2 96.8 332.8
06/09 14:30 13.7 69 8.17 8.1 6 13 1015.9 0 18.7 25.3 38.2 100.3 93.1 319.9
06/09 14:20 14.1 70 8.5 8.7 6 9 1015.9 0 19.4 25.7 39.4 103.3 96.9 333.3
06/09 14:10 13.9 68 8.15 8.1 6 9 1015.9 0 18.6 25.2 38.1 99.8 92.6 318.1
06/09 14:00 13.5 72 8.42 8.6 6 9 1015.9 0 19.2 25.8 39.3 103.2 96.6 332.2
06/09 13:50 13.5 75 8.77 9.2 7 11 1015.9 0 20.0 26.4 40.8 107.0 101.3 348.5
06/09 13:40 13.1 76 8.67 9 7 13 1015.9 0 19.8 26.3 40.6 106.4 100.4 345.5
06/09 13:30 13.1 79 9.02 9.5 6 11 1016 0 20.5 26.9 42.0 110.3 105.2 362.1
06/09 13:20 13.1 81 9.24 9.9 4 11 1016 0 21.0 27.3 42.9 112.7 108.2 372.6
06/09 13:10 13.1 84 9.59 10.5 7 13 1016.1 0 21.7 27.9 44.4 116.6 113.0 389.4
06/09 13:00 13.2 85 9.76 10.7 6 11 1016.1 0 22.1 28.1 45.0 118.4 115.2 397.2
06/09 12:50 13 85 9.64 10.5 6 11 1016.2 0 21.9 28.0 44.6 117.3 113.8 392.4
06/09 12:40 13.3 85 9.82 10.8 6 13 1016.3 0 22.2 28.2 45.2 118.9 115.9 399.7
06/09 12:30 13 84 9.53 10.4 6 15 1016.3 0 21.6 27.8 44.2 116.1 112.3 387.1
06/09 12:20 13.2 84 9.65 10.6 6 13 1016.3 0 21.9 27.9 44.6 117.2 113.7 391.9
06/09 12:10 13 84 9.53 10.4 4 11 1016.3 0 21.6 27.8 44.2 116.1 112.3 387.1
06/09 12:00 12.7 84 9.35 10.1 9 17 1016.3 0 21.2 27.6 43.6 114.5 110.3 379.9
06/09 11:50 13 85 9.64 10.5 9 19 1016.4 0 21.9 28.0 44.7 117.4 113.9 392.5
06/09 11:40 12.9 83 9.36 10.1 6 17 1016.5 0 21.3 27.5 43.5 114.4 110.1 379.4
06/09 11:30 12.7 83 9.24 9.9 6 13 1016.5 0 21.0 27.4 43.1 113.3 108.8 374.6
06/09 11:20 12.7 85 9.46 10.2 4 15 1016.6 0 21.5 27.8 44.1 115.8 111.8 385.3
06/09 11:10 12.7 85 9.46 10.2 6 15 1016.5 0 21.5 27.8 44.1 115.8 111.8 385.3
06/09 11:00 12.9 84 9.47 10.3 4 13 1016.3 0 21.5 27.7 44.0 115.6 111.6 384.7
06/09 10:50 13 85 9.64 10.5 6 15 1016.2 0 21.9 28.0 44.6 117.3 113.8 392.4
06/09 10:40 12.7 86 9.57 10.4 6 13 1016.1 0 21.7 27.9 44.5 117.0 113.3 390.5
06/09 10:30 12.7 87 9.69 10.6 4 15 1015.9 0 22.0 28.1 45.0 118.3 115.0 396.3
06/09 10:20 12.3 87 9.45 10.2 4 17 1016 0 21.5 27.9 44.2 116.2 112.2 386.6
06/09 10:10 12.3 88 9.56 10.4 6 19 1016 0 21.7 28.1 44.7 117.5 113.8 392.0
06/09 10:00 12.1 86 9.22 9.8 2 9 1015.9 0 21.0 27.5 43.4 113.9 109.3 376.4
06/09 09:50 12.1 86 9.22 9.8 4 17 1015.9 0 21.0 27.5 43.4 113.9 109.3 376.4
06/09 09:40 12.4 89 9.73 10.6 4 9 1015.8 0 22.1 28.3 45.4 119.2 116.0 399.7
06/09 09:30 11.6 89 9.25 9.9 6 13 1015.8 0 21.1 27.7 43.8 115.0 110.4 380.3
06/09 09:20 11.4 92 9.44 10.1 6 15 1015.7 0 21.5 28.1 44.7 117.4 113.4 390.5
06/09 09:10 11.2 92 9.33 10 6 13 1015.6 0 21.3 28.0 44.3 116.5 112.1 386.1
06/09 09:00 11.4 92 9.44 10.1 6 17 1015.4 0 21.5 28.1 44.7 117.4 113.4 390.5
06/09 08:50 10.9 91 9.05 9.5 6 17 1015.4 9.4 20.7 27.6 43.3 113.7 108.6 373.8
06/09 08:40 11.6 90 9.36 10 6 13 1015.3 9.4 21.3 27.9 44.2 116.2 111.9 385.5
06/09 08:30 11.6 87 9.04 9.5 6 17 1015.2 9.4 20.6 27.4 42.8 112.5 107.5 369.9
06/09 08:20 11.3 86 8.77 9 9 19 1015.1 9.4 20.1 27.0 41.9 109.9 104.1 358.2
06/09 08:10 11.3 87 8.88 9.2 9 17 1015.1 9.4 20.3 27.2 42.3 111.2 105.6 363.5
06/09 08:00 11.4 87 8.93 9.3 11 20 1014.9 9.4 20.4 27.2 42.5 111.6 106.2 365.4
06/09 07:50 10.8 87 8.6 8.7 13 19 1014.7 9.4 19.7 26.8 41.4 108.7 102.4 352.2
06/09 07:40 10.5 86 8.34 8.3 13 19 1014.5 9.4 19.2 26.5 40.5 106.2 99.2 340.9
06/09 07:30 10.2 86 8.19 8 9 17 1014.4 9.4 18.9 26.3 40.0 104.9 97.5 335.0
06/09 07:20 9.8 87 8.07 7.7 9 17 1014.2 9.4 18.6 26.2 39.7 104.1 96.4 330.9
06/09 07:10 9.6 88 8.06 7.7 9 15 1014 9.4 18.6 26.3 39.7 104.2 96.5 331.2
06/09 07:00 9.4 88 7.96 7.5 13 19 1013.7 9.4 18.4 26.1 39.4 103.3 95.3 327.2
06/09 06:50 9.6 88 8.06 7.7 11 19 1013.4 9.4 18.6 26.2 39.7 104.2 96.4 331.1
06/09 06:40 9.6 87 7.97 7.5 11 17 1013.1 9.4 18.4 26.1 39.3 103.1 95.2 326.7
06/09 06:30 9.4 87 7.87 7.3 7 17 1012.9 9.4 18.2 26.0 39.0 102.3 94.0 322.7
06/09 06:20 9.4 86 7.78 7.2 9 15 1012.7 9.4 18.0 25.8 38.6 101.2 92.8 318.3
06/09 06:10 9.2 85 7.59 6.8 11 15 1012.5 9.4 17.6 25.5 37.9 99.4 90.4 310.0
06/09 06:00 9.1 86 7.63 6.9 9 13 1012.4 9.4 17.7 25.6 38.1 99.9 91.1 312.3
06/09 05:50 9.2 86 7.68 7 9 13 1012.3 9.4 17.8 25.7 38.3 100.4 91.7 314.3
06/09 05:40 9.2 86 7.68 7 7 13 1012.2 9.4 17.8 25.7 38.3 100.4 91.6 314.2
06/09 05:30 9.2 85 7.59 6.8 7 15 1012.2 9.4 17.6 25.5 37.9 99.4 90.4 310.0
06/09 05:20 9.6 85 7.79 7.2 7 17 1012 9.4 18.1 25.7 38.5 101.0 92.6 317.8
06/09 05:10 9.8 84 7.8 7.2 9 19 1011.8 9.4 18.1 25.7 38.5 100.9 92.5 317.4
06/09 05:00 10.1 84 7.95 7.5 9 19 1011.6 9.4 18.4 25.8 38.9 102.1 94.2 323.2
06/09 04:50 10.1 84 7.95 7.5 11 20 1011.4 9.4 18.4 25.8 38.9 102.1 94.2 323.2
06/09 04:40 9.9 83 7.75 7.2 11 19 1011.2 9.4 18.0 25.6 38.2 100.1 91.7 314.5
06/09 04:30 9.8 83 7.7 7.1 11 20 1011 9.4 17.8 25.5 38.0 99.7 91.1 312.5
06/09 04:20 9.8 82 7.61 6.9 13 20 1010.8 9.4 17.7 25.3 37.6 98.7 89.9 308.2
06/09 04:10 9.8 82 7.61 6.9 15 22 1010.6 9.4 17.7 25.3 37.6 98.7 89.9 308.1

Last Refresh: 06-Sep-2026 20:19:32

Bureau of Meteorology